Time;durP1;ratioP1;P1;durP2;ratioP2;P2;SDS_P1;SDS_P2;PMS_P1;PMS_P2;Temp;Humidity;BMP_temperature;BMP_pressure;BME280_temperature;BME280_humidity;BME280_pressure;Samples;Min_cycle;Max_cycle;Signal;HPM_P1;HPM_P2
2023/03/24 00:01:05;;;;;;;4.28;2.30;;;14.50;94.40;;;;;;4984983;28;20034;-73
2023/03/24 00:03:32;;;;;;;5.65;2.40;;;14.40;94.70;;;;;;4985308;28;20113;-73
2023/03/24 00:06:03;;;;;;;4.72;2.40;;;14.40;94.50;;;;;;4985061;28;20041;-73
2023/03/24 00:08:30;;;;;;;3.45;1.90;;;14.40;95.10;;;;;;4984194;28;20050;-75
2023/03/24 00:11:02;;;;;;;4.20;2.10;;;14.30;94.70;;;;;;4976099;28;20065;-73
2023/03/24 00:13:30;;;;;;;3.35;1.77;;;14.30;94.60;;;;;;4985035;28;20023;-74
2023/03/24 00:15:57;;;;;;;3.88;2.08;;;14.20;95.30;;;;;;4984690;28;20027;-75
2023/03/24 00:18:24;;;;;;;3.97;2.25;;;14.10;95.70;;;;;;4985028;28;20027;-74
2023/03/24 00:20:59;;;;;;;4.55;2.13;;;14.10;95.50;;;;;;4984052;28;20097;-74
2023/03/24 00:23:26;;;;;;;4.90;2.33;;;14.10;96.40;;;;;;4984704;28;20031;-73
2023/03/24 00:26:04;;;;;;;4.13;1.90;;;14.00;96.20;;;;;;4983832;28;20093;-73
2023/03/24 00:28:32;;;;;;;4.63;2.30;;;13.90;96.30;;;;;;4984427;28;20045;-73
2023/03/24 00:30:59;;;;;;;4.07;2.10;;;13.90;97.50;;;;;;4982711;28;20031;-74
2023/03/24 00:33:25;;;;;;;4.43;1.95;;;13.90;97.30;;;;;;4982830;28;20098;-73
2023/03/24 00:35:51;;;;;;;3.38;1.73;;;13.80;96.00;;;;;;4983725;28;20038;-74
2023/03/24 00:38:18;;;;;;;4.63;2.13;;;13.80;96.00;;;;;;4984546;28;20120;-72
2023/03/24 00:40:47;;;;;;;3.35;1.88;;;13.70;96.80;;;;;;4983673;28;20042;-72
2023/03/24 00:43:13;;;;;;;3.67;1.75;;;13.70;96.70;;;;;;4967391;28;20029;-74
2023/03/24 00:45:45;;;;;;;2.78;1.52;;;13.70;96.10;;;;;;4966568;28;20335;-73
2023/03/24 00:48:16;;;;;;;2.60;1.38;;;13.90;95.10;;;;;;4984344;28;20050;-72
2023/03/24 00:50:50;;;;;;;3.58;1.75;;;14.10;93.30;;;;;;4982610;28;20031;-75
2023/03/24 00:53:17;;;;;;;3.75;1.45;;;14.30;93.30;;;;;;4984333;28;20061;-72
2023/03/24 00:55:46;;;;;;;2.80;1.67;;;14.30;92.50;;;;;;4983775;28;20030;-73
2023/03/24 00:58:16;;;;;;;3.08;1.45;;;14.30;92.90;;;;;;4984003;28;20023;-72
2023/03/24 06:02:07;;;;;;;2.30;1.20;;;14.70;97.00;;;;;;5584594;23;20063;-72
2023/03/24 06:05:07;;;;;;;;;;;14.50;97.10;;;;;;4939168;29;20260;-74
2023/03/24 06:07:33;;;;;;;2.63;1.20;;;14.50;97.60;;;;;;4927632;29;19960;-71
2023/03/24 06:10:02;;;;;;;2.20;1.30;;;14.40;97.50;;;;;;4932594;29;20329;-74
2023/03/24 06:12:33;;;;;;;2.58;1.33;;;14.40;97.60;;;;;;4955636;28;20031;-73
2023/03/24 06:15:02;;;;;;;3.90;1.20;;;14.40;97.90;;;;;;4942831;29;20124;-72
2023/03/24 06:17:29;;;;;;;3.22;1.50;;;14.40;98.20;;;;;;4959450;28;20062;-72
2023/03/24 06:20:04;;;;;;;2.50;1.17;;;14.40;98.30;;;;;;4934564;29;20325;-71
2023/03/24 06:22:43;;;;;;;3.40;1.67;;;14.40;98.20;;;;;;4944472;29;20032;-71
2023/03/24 06:25:14;;;;;;;3.72;1.88;;;14.50;98.80;;;;;;4943136;29;20038;-73
2023/03/24 06:27:45;;;;;;;3.00;1.58;;;14.40;99.70;;;;;;4943440;29;20028;-75
2023/03/24 06:30:14;;;;;;;3.05;1.33;;;14.50;99.40;;;;;;4944006;29;20035;-74
2023/03/24 06:32:40;;;;;;;3.25;1.70;;;14.40;99.00;;;;;;4931314;29;20030;-77
2023/03/24 06:35:06;;;;;;;3.33;1.50;;;14.50;99.70;;;;;;4946662;29;20055;-74
2023/03/24 06:37:42;;;;;;;3.63;1.48;;;14.50;99.90;;;;;;4963250;28;20070;-74
2023/03/24 06:40:14;;;;;;;3.88;1.70;;;14.50;99.90;;;;;;4955421;29;20039;-74
2023/03/24 06:42:48;;;;;;;3.40;1.85;;;14.40;99.90;;;;;;4947129;29;20055;-74
2023/03/24 06:45:14;;;;;;;4.80;2.05;;;14.40;99.90;;;;;;4962411;28;20103;-74
2023/03/24 06:47:40;;;;;;;2.55;1.50;;;14.40;99.90;;;;;;4962794;29;20211;-74
2023/03/24 06:50:06;;;;;;;3.22;1.63;;;14.40;99.90;;;;;;4946347;29;20031;-74
2023/03/24 06:52:34;;;;;;;3.63;1.75;;;14.40;99.90;;;;;;4946843;29;20031;-73
2023/03/24 06:55:01;;;;;;;3.58;1.67;;;14.40;99.90;;;;;;4946439;29;20051;-74
2023/03/24 06:57:28;;;;;;;2.10;1.40;;;14.40;99.90;;;;;;4949620;29;20099;-74
2023/03/24 07:00:13;;;;;;;3.72;1.55;;;14.40;99.90;;;;;;4952836;29;20083;-74
2023/03/24 07:02:52;;;;;;;4.22;1.70;;;14.50;99.90;;;;;;4937264;29;20048;-75
2023/03/24 07:05:19;;;;;;;3.67;1.88;;;14.50;99.90;;;;;;4938634;29;20055;-74
2023/03/24 07:07:45;;;;;;;3.00;1.58;;;14.50;99.90;;;;;;4928730;29;20040;-74
2023/03/24 07:10:35;;;;;;;4.45;1.70;;;14.50;99.90;;;;;;4930583;29;20317;-73
2023/03/24 07:13:02;;;;;;;4.15;1.60;;;14.60;99.90;;;;;;4942730;29;20032;-74
2023/03/24 07:15:29;;;;;;;2.72;1.50;;;14.50;99.90;;;;;;4943291;29;20226;-74
2023/03/24 07:17:56;;;;;;;4.45;1.60;;;14.50;99.90;;;;;;4927229;29;20055;-74
2023/03/24 07:20:32;;;;;;;3.08;1.80;;;14.40;99.90;;;;;;4934183;29;20337;-75
2023/03/24 07:23:20;;;;;;;3.22;1.58;;;14.30;99.90;;;;;;4927937;29;20055;-73
2023/03/24 07:25:56;;;;;;;;;;;14.30;99.90;;;;;;4928923;29;20305;-74
2023/03/24 07:28:41;;;;;;;4.05;1.70;;;14.30;99.90;;;;;;4910754;29;19958;-73
2023/03/24 07:31:09;;;;;;;3.00;2.03;;;14.20;99.90;;;;;;4942349;29;20325;-73
2023/03/24 07:33:37;;;;;;;4.03;1.90;;;14.10;99.90;;;;;;4942582;29;20269;-73
2023/03/24 07:36:03;;;;;;;3.85;1.85;;;14.00;99.90;;;;;;4942228;29;20451;-71
2023/03/24 07:38:29;;;;;;;5.15;2.10;;;13.90;99.90;;;;;;4935897;29;20034;-71
2023/03/24 07:41:01;;;;;;;5.50;2.28;;;13.70;99.90;;;;;;4941418;29;20047;-72
2023/03/24 07:43:29;;;;;;;;;;;13.60;99.90;;;;;;4942762;29;20118;-72
2023/03/24 07:46:27;;;;;;;4.70;2.38;;;13.60;99.90;;;;;;4917008;29;19907;-73
2023/03/24 07:48:53;;;;;;;6.15;2.50;;;13.50;99.90;;;;;;4927640;29;20055;-75
2023/03/24 07:51:19;;;;;;;4.57;2.53;;;13.50;99.90;;;;;;4941986;29;20116;-73
2023/03/24 07:53:55;;;;;;;3.92;2.13;;;13.50;99.90;;;;;;4942675;29;20076;-73
2023/03/24 07:56:35;;;;;;;3.78;2.20;;;13.50;99.90;;;;;;4942443;29;20051;-72
2023/03/24 07:59:00;;;;;;;4.00;2.13;;;13.50;99.90;;;;;;4935176;29;20032;-73
2023/03/24 08:01:48;;;;;;;4.65;2.40;;;13.60;99.90;;;;;;4934660;29;20108;-73
2023/03/24 08:04:14;;;;;;;5.20;2.30;;;13.60;99.90;;;;;;4941841;29;20032;-72
2023/03/24 08:06:54;;;;;;;4.10;1.90;;;13.60;99.90;;;;;;4926355;29;20247;-72
2023/03/24 08:09:22;;;;;;;4.53;2.60;;;13.60;99.90;;;;;;4926921;29;20185;-71
2023/03/24 08:11:48;;;;;;;5.30;2.33;;;13.60;99.90;;;;;;4916562;29;20326;-71
2023/03/24 08:14:14;;;;;;;4.30;2.33;;;13.60;99.90;;;;;;4926942;29;20024;-72
2023/03/24 08:16:40;;;;;;;4.65;2.10;;;13.70;99.90;;;;;;4927438;29;20141;-73
2023/03/24 08:19:06;;;;;;;4.40;2.22;;;13.80;99.90;;;;;;4926711;29;20106;-72
2023/03/24 08:21:32;;;;;;;3.85;1.85;;;13.80;99.90;;;;;;4927180;29;20066;-71
2023/03/24 08:23:58;;;;;;;5.03;2.17;;;13.80;99.90;;;;;;4927124;29;20032;-72
2023/03/24 08:26:25;;;;;;;3.40;2.25;;;13.80;99.90;;;;;;4926945;29;20032;-71
2023/03/24 08:28:52;;;;;;;4.05;2.08;;;13.90;99.90;;;;;;4926992;29;20213;-70
2023/03/24 08:31:18;;;;;;;4.82;2.30;;;13.90;99.90;;;;;;4925107;29;20024;-70
2023/03/24 08:33:43;;;;;;;4.18;2.05;;;14.00;99.90;;;;;;4927115;29;20287;-70
2023/03/24 08:36:09;;;;;;;4.57;2.03;;;14.10;99.90;;;;;;4925957;29;20043;-70
2023/03/24 08:38:37;;;;;;;4.30;1.83;;;14.00;99.90;;;;;;4926727;29;20070;-70
2023/03/24 08:41:05;;;;;;;3.80;2.08;;;14.20;99.90;;;;;;4926234;29;20044;-72
2023/03/24 08:43:33;;;;;;;3.60;1.75;;;14.30;99.90;;;;;;4927074;29;20113;-71
2023/03/24 08:46:00;;;;;;;3.28;1.70;;;14.30;99.90;;;;;;4926499;29;20044;-70
2023/03/24 08:48:28;;;;;;;3.78;2.10;;;14.30;99.90;;;;;;4926587;29;20194;-71
2023/03/24 08:50:55;;;;;;;3.38;1.85;;;14.30;99.90;;;;;;4926282;29;20059;-72
2023/03/24 08:53:21;;;;;;;3.05;1.70;;;14.30;99.90;;;;;;4925061;29;20060;-72
2023/03/24 08:55:47;;;;;;;3.00;1.65;;;14.40;99.90;;;;;;4926405;29;20084;-71
2023/03/24 08:58:15;;;;;;;3.50;1.52;;;14.50;99.90;;;;;;4927481;29;20091;-73
2023/03/24 09:00:43;;;;;;;4.35;1.60;;;14.70;99.90;;;;;;4927961;29;20100;-72
2023/03/24 09:03:13;;;;;;;4.07;1.60;;;14.80;99.90;;;;;;4925554;29;20123;-73
2023/03/24 09:05:39;;;;;;;3.38;1.30;;;14.90;99.90;;;;;;4926470;29;20063;-74
2023/03/24 09:08:06;;;;;;;2.35;1.40;;;15.00;99.90;;;;;;4926090;29;20036;-73
2023/03/24 09:10:32;;;;;;;2.65;1.40;;;15.10;99.90;;;;;;4926056;29;20054;-74
2023/03/24 09:12:59;;;;;;;3.38;1.50;;;15.20;99.90;;;;;;4925896;29;20055;-72
2023/03/24 09:15:25;;;;;;;2.45;1.45;;;15.30;99.90;;;;;;4925655;29;20040;-74
2023/03/24 09:17:51;;;;;;;2.47;1.40;;;15.30;99.90;;;;;;4926096;29;20067;-74
2023/03/24 09:20:17;;;;;;;4.07;1.73;;;15.20;99.90;;;;;;4925378;29;20040;-74
2023/03/24 09:22:45;;;;;;;2.33;1.38;;;15.20;99.90;;;;;;4925746;29;20023;-74
2023/03/24 09:25:16;;;;;;;2.75;1.40;;;15.40;99.90;;;;;;4925653;29;20051;-73
2023/03/24 09:27:42;;;;;;;4.05;1.65;;;15.50;99.90;;;;;;4925871;29;20042;-74
2023/03/24 09:30:10;;;;;;;4.28;1.60;;;15.60;99.90;;;;;;4925786;29;20039;-73
2023/03/24 09:32:36;;;;;;;2.97;1.30;;;15.60;99.90;;;;;;4925760;29;20063;-74
2023/03/24 09:35:03;;;;;;;3.03;1.45;;;15.70;99.90;;;;;;4925907;29;20055;-74
2023/03/24 09:37:32;;;;;;;4.60;1.70;;;15.80;99.90;;;;;;4925342;29;20099;-74
2023/03/24 09:40:00;;;;;;;3.70;1.40;;;15.80;99.90;;;;;;4925980;29;20051;-74
2023/03/24 09:42:28;;;;;;;2.63;1.33;;;15.80;99.90;;;;;;4925326;29;20277;-74
2023/03/24 09:44:59;;;;;;;2.10;1.23;;;16.00;99.90;;;;;;4925551;29;20036;-74
2023/03/24 09:47:25;;;;;;;2.53;1.25;;;16.00;99.90;;;;;;4925573;29;20047;-74
2023/03/24 09:49:51;;;;;;;1.90;1.00;;;16.10;99.90;;;;;;4925632;29;20039;-73
2023/03/24 09:52:26;;;;;;;2.55;1.05;;;16.20;99.90;;;;;;4925179;29;20297;-75
2023/03/24 09:54:55;;;;;;;3.30;1.50;;;16.20;99.90;;;;;;4925509;29;20043;-76
2023/03/24 09:57:28;;;;;;;3.20;1.00;;;16.30;99.90;;;;;;4926718;29;20054;-74
2023/03/24 09:59:55;;;;;;;2.80;1.10;;;16.40;99.90;;;;;;4925628;29;20041;-74
2023/03/24 10:02:22;;;;;;;2.10;1.10;;;16.60;99.90;;;;;;4924905;29;20128;-74
2023/03/24 10:04:48;;;;;;;2.97;1.30;;;16.50;99.90;;;;;;4924889;29;20046;-75
2023/03/24 10:07:14;;;;;;;2.47;1.20;;;16.60;99.90;;;;;;4924793;29;20072;-72
2023/03/24 10:09:40;;;;;;;2.10;1.30;;;16.60;99.90;;;;;;4925285;29;20040;-75
2023/03/24 10:12:18;;;;;;;3.80;1.70;;;16.70;99.90;;;;;;4924860;29;20036;-73
2023/03/24 10:15:03;;;;;;;;;;;16.90;99.90;;;;;;4925829;29;20040;-72
2023/03/24 10:17:39;;;;;;;3.38;1.55;;;16.90;99.90;;;;;;4925081;29;19907;-80
2023/03/24 10:20:26;;;;;;;3.35;1.30;;;17.00;99.90;;;;;;4925164;29;20269;-75
2023/03/24 10:23:01;;;;;;;2.47;1.10;;;17.30;99.90;;;;;;4925391;29;20040;-75
2023/03/24 10:25:59;;;;;;;4.63;1.35;;;17.30;99.90;;;;;;4924673;29;20040;-76
2023/03/24 10:28:51;;;;;;;2.17;1.08;;;17.40;99.90;;;;;;4924826;29;20116;-75
2023/03/24 10:31:26;;;;;;;2.20;1.10;;;17.80;99.90;;;;;;4922966;29;20105;-75
2023/03/24 10:33:53;;;;;;;3.10;1.10;;;17.80;99.90;;;;;;4925226;29;20028;-74
2023/03/24 10:36:20;;;;;;;2.85;0.80;;;18.10;99.10;;;;;;4924384;29;20036;-75
2023/03/24 10:38:46;;;;;;;2.35;0.73;;;18.10;98.10;;;;;;4925578;29;20047;-76
2023/03/24 10:41:20;;;;;;;1.75;0.90;;;18.00;97.70;;;;;;4924908;29;20302;-75
2023/03/24 10:43:48;;;;;;;1.63;0.80;;;17.80;97.40;;;;;;4925571;29;20036;-75
2023/03/24 10:46:17;;;;;;;1.83;0.60;;;18.10;97.20;;;;;;4924882;29;20028;-75
2023/03/24 10:48:51;;;;;;;1.88;0.70;;;18.10;96.70;;;;;;4925321;29;20040;-75
2023/03/24 10:51:26;;;;;;;1.52;0.70;;;18.10;96.20;;;;;;4925016;29;20080;-75
2023/03/24 10:54:10;;;;;;;3.45;0.70;;;18.10;95.30;;;;;;4925466;29;20043;-75
2023/03/24 10:56:38;;;;;;;1.63;0.60;;;17.90;95.50;;;;;;4924146;29;20036;-75
2023/03/24 10:59:18;;;;;;;2.80;0.60;;;18.00;95.20;;;;;;4929166;29;20095;-76
2023/03/24 11:01:45;;;;;;;1.20;0.47;;;18.00;95.20;;;;;;4929989;29;20402;-76
2023/03/24 11:04:14;;;;;;;1.52;0.70;;;17.80;95.00;;;;;;4924946;29;20032;-74
2023/03/24 11:07:16;;;;;;;3.15;0.80;;;17.80;95.50;;;;;;4925288;29;20072;-74
2023/03/24 11:09:44;;;;;;;1.77;0.50;;;17.70;95.20;;;;;;4919295;29;20055;-74
2023/03/24 11:12:28;;;;;;;1.25;0.60;;;17.70;95.70;;;;;;4924691;29;20053;-74
2023/03/24 11:15:21;;;;;;;1.40;0.52;;;17.80;95.50;;;;;;4924982;29;20052;-73
2023/03/24 11:18:06;;;;;;;1.42;0.55;;;17.90;94.40;;;;;;4928680;29;20218;-79
2023/03/24 11:20:34;;;;;;;2.67;0.57;;;18.20;93.90;;;;;;4927825;29;20084;-73
2023/03/24 11:23:19;;;;;;;2.27;0.63;;;18.40;93.80;;;;;;4928038;29;20036;-73
2023/03/24 11:26:01;;;;;;;1.80;0.50;;;18.70;93.20;;;;;;4928010;29;20234;-74
2023/03/24 11:28:27;;;;;;;1.50;0.40;;;18.70;92.70;;;;;;4927992;29;20092;-73
2023/03/24 11:30:55;;;;;;;1.45;0.50;;;18.70;92.40;;;;;;4928018;29;20317;-74
2023/03/24 11:33:32;;;;;;;3.28;0.75;;;18.60;92.40;;;;;;4927317;29;20051;-76
2023/03/24 11:36:00;;;;;;;2.22;0.68;;;18.70;92.50;;;;;;4920872;29;20047;-74
2023/03/24 11:38:33;;;;;;;2.17;0.63;;;18.60;92.30;;;;;;4942096;29;20059;-74
2023/03/24 11:41:03;;;;;;;2.05;0.70;;;18.50;92.30;;;;;;4927709;29;20051;-74
2023/03/24 11:43:30;;;;;;;1.92;0.50;;;18.50;92.20;;;;;;4927225;29;20087;-73
2023/03/24 11:46:03;;;;;;;1.45;0.40;;;18.60;92.30;;;;;;4927732;29;20028;-73
2023/03/24 11:48:51;;;;;;;1.02;0.40;;;18.30;92.30;;;;;;4941948;29;20036;-74
2023/03/24 11:51:33;;;;;;;1.85;0.50;;;18.00;92.30;;;;;;4927678;29;20036;-74
2023/03/24 11:54:03;;;;;;;1.02;0.40;;;17.80;92.70;;;;;;4927552;29;20048;-74
2023/03/24 11:56:40;;;;;;;0.80;0.30;;;17.90;92.60;;;;;;4927095;29;20325;-74
2023/03/24 11:59:13;;;;;;;1.60;0.30;;;17.80;92.20;;;;;;4927524;29;20040;-73
2023/03/24 12:01:50;;;;;;;1.63;0.40;;;17.70;92.60;;;;;;4927025;29;20059;-74
2023/03/24 12:04:34;;;;;;;2.25;0.35;;;18.10;92.10;;;;;;4927153;29;20084;-73
2023/03/24 12:07:24;;;;;;;1.30;0.30;;;18.30;91.00;;;;;;4927006;29;20286;-72
2023/03/24 12:10:26;;;;;;;1.95;0.30;;;18.10;91.20;;;;;;4927513;29;20036;-74
2023/03/24 12:13:11;;;;;;;2.13;0.30;;;17.90;91.20;;;;;;4919192;29;20103;-73
2023/03/24 12:16:03;;;;;;;0.63;0.20;;;17.90;90.90;;;;;;4927237;29;20047;-73
2023/03/24 12:18:41;;;;;;;1.27;0.20;;;18.10;90.70;;;;;;4926645;29;20060;-74
2023/03/24 12:21:42;;;;;;;4.15;0.30;;;18.10;90.80;;;;;;4926969;29;20051;-73
2023/03/24 12:24:51;;;;;;;0.57;0.20;;;18.10;90.50;;;;;;4926632;29;20043;-73
2023/03/24 12:27:33;;;;;;;1.20;0.50;;;17.70;90.40;;;;;;4941167;29;20040;-73
2023/03/24 12:30:27;;;;;;;1.35;0.30;;;17.50;90.80;;;;;;4925250;29;20040;-73
2023/03/24 12:33:43;;;;;;;0.60;0.10;;;17.80;90.60;;;;;;4926517;29;20083;-73
2023/03/24 12:36:30;;;;;;;2.25;0.20;;;18.10;89.80;;;;;;4884504;29;20089;-72
2023/03/24 12:39:17;;;;;;;0.50;0.10;;;18.00;89.40;;;;;;4926643;29;20036;-73
2023/03/24 12:42:11;;;;;;;0.75;0.30;;;18.00;89.80;;;;;;4926751;29;20035;-73
2023/03/24 12:45:09;;;;;;;0.57;0.10;;;18.00;89.60;;;;;;4926482;29;20051;-73
2023/03/24 12:47:37;;;;;;;0.68;0.20;;;17.90;90.20;;;;;;4926390;29;20032;-75
2023/03/24 12:50:21;;;;;;;0.63;0.20;;;17.90;90.30;;;;;;4926592;29;20058;-73
2023/03/24 12:53:06;;;;;;;0.98;0.30;;;18.10;90.00;;;;;;4926527;29;20024;-73
2023/03/24 12:55:53;;;;;;;1.13;0.35;;;17.90;90.20;;;;;;4926225;29;20036;-74
2023/03/24 12:58:37;;;;;;;1.38;0.30;;;17.70;90.60;;;;;;4926260;29;20036;-72
2023/03/24 13:01:06;;;;;;;3.25;0.25;;;17.70;90.70;;;;;;4926328;29;20103;-73
2023/03/24 13:03:40;;;;;;;1.48;0.15;;;17.70;91.00;;;;;;4925466;29;20055;-75
2023/03/24 13:06:19;;;;;;;1.60;0.20;;;17.70;91.00;;;;;;4926482;29;20055;-72
2023/03/24 13:08:55;;;;;;;1.10;0.32;;;17.60;91.20;;;;;;4926245;29;20340;-73
2023/03/24 13:11:30;;;;;;;0.40;0.10;;;17.70;91.30;;;;;;4926038;29;20044;-73
2023/03/24 13:13:58;;;;;;;2.22;0.28;;;17.80;91.00;;;;;;4927072;29;20054;-74
2023/03/24 13:16:29;;;;;;;1.80;0.30;;;17.80;91.20;;;;;;4926285;29;20040;-72
2023/03/24 13:18:58;;;;;;;0.60;0.20;;;17.90;91.10;;;;;;4926448;29;20032;-73
2023/03/24 13:21:26;;;;;;;1.17;0.20;;;17.80;91.00;;;;;;4926043;29;20080;-73
2023/03/24 13:23:55;;;;;;;1.63;0.20;;;17.60;91.30;;;;;;4926280;29;20039;-75
2023/03/24 13:26:27;;;;;;;0.75;0.25;;;17.60;91.50;;;;;;4926086;29;20039;-75
2023/03/24 13:29:07;;;;;;;0.70;0.20;;;17.40;91.50;;;;;;4926160;29;20032;-74
2023/03/24 13:31:41;;;;;;;0.30;0.10;;;17.20;91.80;;;;;;4925662;29;20075;-74
2023/03/24 13:34:31;;;;;;;0.95;0.20;;;16.90;92.00;;;;;;4926162;29;20035;-74
2023/03/24 13:37:32;;;;;;;0.70;0.10;;;16.60;92.40;;;;;;4919173;29;20040;-74
2023/03/24 13:40:00;;;;;;;0.68;0.20;;;16.60;92.90;;;;;;4904268;29;20278;-74
2023/03/24 13:42:40;;;;;;;1.17;0.32;;;16.60;92.80;;;;;;4925278;29;20036;-72
2023/03/24 13:45:07;;;;;;;2.08;0.32;;;16.50;92.90;;;;;;4925924;29;20059;-72
2023/03/24 13:48:15;;;;;;;0.57;0.10;;;16.50;93.10;;;;;;4925217;29;20035;-74
2023/03/24 13:51:11;;;;;;;1.50;0.22;;;16.60;92.80;;;;;;4918468;29;20048;-72
2023/03/24 13:53:38;;;;;;;1.08;0.20;;;16.50;92.90;;;;;;4925432;29;20032;-71
2023/03/24 13:56:07;;;;;;;0.93;0.30;;;16.50;92.80;;;;;;4925637;29;20365;-72
2023/03/24 13:58:49;;;;;;;2.00;0.40;;;16.30;93.10;;;;;;4926778;29;20384;-73
2023/03/24 14:01:30;;;;;;;1.63;0.38;;;16.20;95.00;;;;;;4924823;29;20071;-72
2023/03/24 14:04:17;;;;;;;0.77;0.28;;;16.20;93.80;;;;;;4925584;29;20051;-72
2023/03/24 14:06:47;;;;;;;1.10;0.30;;;16.60;93.00;;;;;;4918093;29;20103;-72
2023/03/24 14:09:55;;;;;;;2.15;0.60;;;16.60;94.10;;;;;;4924684;29;20043;-72
2023/03/24 14:12:21;;;;;;;3.50;0.57;;;16.40;95.30;;;;;;4925208;29;20333;-73
2023/03/24 14:15:14;;;;;;;1.23;0.40;;;16.40;95.50;;;;;;4925409;29;20044;-71
2023/03/24 14:17:44;;;;;;;2.35;0.50;;;16.50;95.30;;;;;;4925298;29;20036;-73
2023/03/24 14:20:12;;;;;;;1.55;0.50;;;16.20;95.90;;;;;;4925510;29;20341;-72
2023/03/24 14:22:46;;;;;;;2.38;0.40;;;15.80;96.20;;;;;;4925040;29;20267;-75
2023/03/24 14:25:15;;;;;;;2.13;0.55;;;15.60;96.50;;;;;;4939270;29;20310;-72
2023/03/24 14:27:47;;;;;;;3.60;0.50;;;15.30;97.70;;;;;;4925409;29;20054;-73
2023/03/24 14:30:17;;;;;;;3.20;0.73;;;15.00;99.00;;;;;;4924427;29;20036;-73
2023/03/24 14:32:55;;;;;;;1.88;0.60;;;14.50;99.90;;;;;;4925142;29;20318;-73
2023/03/24 14:35:38;;;;;;;2.63;0.70;;;13.70;99.90;;;;;;4924482;29;20043;-72
2023/03/24 14:38:21;;;;;;;1.63;0.40;;;13.20;99.90;;;;;;4925100;29;20039;-72
2023/03/24 14:40:56;;;;;;;1.83;0.40;;;13.00;99.90;;;;;;4924605;29;20048;-73
2023/03/24 14:43:27;;;;;;;2.38;0.50;;;12.80;99.90;;;;;;4939461;29;20040;-73
2023/03/24 14:46:20;;;;;;;2.13;0.40;;;12.60;99.90;;;;;;4924603;29;20048;-74
2023/03/24 14:49:13;;;;;;;1.83;0.50;;;12.60;99.90;;;;;;4906699;29;20377;-72
2023/03/24 14:51:40;;;;;;;1.55;0.30;;;12.70;99.90;;;;;;4927028;29;20032;-74
2023/03/24 14:54:29;;;;;;;2.00;0.55;;;12.50;99.90;;;;;;4928315;29;20034;-71
2023/03/24 14:56:56;;;;;;;1.50;0.55;;;12.30;99.90;;;;;;4928599;29;20043;-72
2023/03/24 14:59:39;;;;;;;3.20;0.40;;;12.20;99.90;;;;;;4930011;29;20047;-73
2023/03/24 15:02:25;;;;;;;2.03;0.40;;;12.20;99.90;;;;;;4928455;29;20048;-73
2023/03/24 15:05:16;;;;;;;2.13;0.50;;;12.20;99.90;;;;;;4928793;29;20028;-74
2023/03/24 15:07:43;;;;;;;1.65;0.50;;;12.30;99.90;;;;;;4927981;29;20094;-72
2023/03/24 15:10:16;;;;;;;2.50;0.40;;;12.30;99.90;;;;;;4928266;29;20318;-70
2023/03/24 15:12:44;;;;;;;1.27;0.40;;;12.30;99.90;;;;;;4914473;29;20040;-72
2023/03/24 15:15:19;;;;;;;2.67;0.43;;;12.20;99.90;;;;;;4928301;29;20016;-72
2023/03/24 15:17:45;;;;;;;1.42;0.52;;;12.10;99.90;;;;;;4928493;29;20052;-70
2023/03/24 15:20:30;;;;;;;1.83;0.50;;;12.10;99.90;;;;;;4928453;29;20043;-74
2023/03/24 15:23:05;;;;;;;4.13;0.60;;;11.90;99.90;;;;;;4943457;29;20213;-70
2023/03/24 15:25:31;;;;;;;2.25;0.60;;;11.90;99.90;;;;;;4927747;29;20044;-72
2023/03/24 15:27:57;;;;;;;2.97;0.60;;;11.90;99.90;;;;;;4928542;29;20217;-72
2023/03/24 15:30:23;;;;;;;4.35;0.57;;;11.90;99.90;;;;;;4927722;29;20108;-74
2023/03/24 15:32:50;;;;;;;4.80;2.60;;;11.80;99.90;;;;;;4943053;29;20035;-73
2023/03/24 15:35:19;;;;;;;3.22;1.13;;;11.80;99.90;;;;;;4927928;29;20243;-73
2023/03/24 15:37:54;;;;;;;2.88;0.75;;;11.80;99.90;;;;;;4928172;29;20373;-72
2023/03/24 15:40:25;;;;;;;2.75;0.80;;;11.80;99.90;;;;;;4927516;29;20062;-71
2023/03/24 15:42:53;;;;;;;1.40;0.52;;;12.00;99.90;;;;;;4927734;29;20047;-72
2023/03/24 15:45:31;;;;;;;1.63;0.60;;;12.10;99.90;;;;;;4927613;29;20055;-71
2023/03/24 15:48:13;;;;;;;2.30;0.80;;;12.30;99.90;;;;;;4942923;29;20056;-72
2023/03/24 15:50:40;;;;;;;1.83;0.90;;;12.30;99.90;;;;;;4927394;29;20091;-71
2023/03/24 15:53:18;;;;;;;2.23;0.90;;;12.50;99.90;;;;;;4928017;29;20247;-72
2023/03/24 15:55:44;;;;;;;1.57;0.77;;;12.60;99.90;;;;;;4927933;29;20039;-74
2023/03/24 15:58:31;;;;;;;1.55;0.82;;;12.70;99.90;;;;;;4927767;29;20667;-79
2023/03/24 16:01:01;;;;;;;1.80;0.85;;;12.80;99.90;;;;;;4927338;29;20063;-72
2023/03/24 16:03:29;;;;;;;2.17;0.60;;;12.90;99.90;;;;;;4925987;29;20059;-70
2023/03/24 16:05:55;;;;;;;2.05;0.52;;;13.10;99.90;;;;;;4927027;29;20036;-73
2023/03/24 16:08:34;;;;;;;2.03;0.43;;;13.30;99.90;;;;;;4935077;29;20055;-74
2023/03/24 16:11:04;;;;;;;1.70;0.30;;;13.40;99.90;;;;;;4923917;29;20048;-72
2023/03/24 16:13:29;;;;;;;0.75;0.15;;;13.50;99.90;;;;;;4911616;29;20381;-72
2023/03/24 16:16:12;;;;;;;0.95;0.30;;;13.60;99.90;;;;;;4924575;29;20027;-72
2023/03/24 16:18:42;;;;;;;1.17;0.20;;;13.70;99.90;;;;;;4926441;29;20055;-75
2023/03/24 16:21:15;;;;;;;0.98;0.20;;;13.60;99.90;;;;;;4927270;29;20035;-72
2023/03/24 16:23:41;;;;;;;0.98;0.30;;;13.60;99.90;;;;;;4926725;29;20036;-74
2023/03/24 16:26:24;;;;;;;1.52;0.30;;;13.70;99.90;;;;;;4928194;28;20123;-72
2023/03/24 16:28:51;;;;;;;1.50;0.50;;;13.60;99.90;;;;;;4946065;29;20035;-73
2023/03/24 16:31:23;;;;;;;2.13;0.40;;;13.70;99.90;;;;;;4945157;29;20043;-76
2023/03/24 16:33:53;;;;;;;1.58;0.32;;;13.60;99.90;;;;;;4960908;28;20236;-75
2023/03/24 16:36:20;;;;;;;0.68;0.30;;;13.90;99.90;;;;;;4945243;29;20031;-77
2023/03/24 16:38:52;;;;;;;1.00;0.40;;;14.40;99.90;;;;;;4954698;29;20274;-79
2023/03/24 16:41:18;;;;;;;1.00;0.40;;;15.10;99.90;;;;;;4951969;28;20107;-74
2023/03/24 16:43:44;;;;;;;1.50;0.40;;;15.50;99.90;;;;;;4934884;29;20028;-77
2023/03/24 16:46:25;;;;;;;1.15;0.30;;;15.50;99.90;;;;;;4925949;29;20023;-73
2023/03/24 16:48:51;;;;;;;1.70;0.30;;;15.70;99.90;;;;;;4944706;29;20024;-76
2023/03/24 16:51:17;;;;;;;1.23;0.35;;;15.50;99.90;;;;;;4960573;28;20229;-73
2023/03/24 16:53:45;;;;;;;1.02;0.40;;;15.40;99.90;;;;;;4945703;29;20100;-73
2023/03/24 16:56:17;;;;;;;1.20;0.50;;;15.30;99.90;;;;;;4945311;29;20042;-74
2023/03/24 16:58:44;;;;;;;2.15;0.63;;;15.30;99.90;;;;;;4946137;29;20124;-76
2023/03/24 17:01:25;;;;;;;0.85;0.30;;;15.00;99.90;;;;;;4945350;29;20043;-74
2023/03/24 17:03:56;;;;;;;0.90;0.30;;;14.40;99.90;;;;;;4940505;29;20047;-74
2023/03/24 17:06:23;;;;;;;1.33;0.47;;;14.20;99.90;;;;;;4941278;28;20059;-75
2023/03/24 17:08:49;;;;;;;1.27;0.45;;;14.00;99.90;;;;;;4959211;28;20107;-74
2023/03/24 17:11:35;;;;;;;0.70;0.30;;;13.70;99.90;;;;;;4934713;29;20054;-74
2023/03/24 17:14:03;;;;;;;2.13;0.40;;;13.60;99.90;;;;;;4942627;29;20031;-74
2023/03/24 17:16:35;;;;;;;1.77;0.70;;;13.50;99.90;;;;;;4938608;29;20189;-74
2023/03/24 17:19:02;;;;;;;1.52;0.55;;;13.40;99.90;;;;;;4944969;29;20309;-74
2023/03/24 17:21:30;;;;;;;1.60;0.68;;;13.20;99.90;;;;;;4944285;29;20036;-75
2023/03/24 17:23:55;;;;;;;2.35;0.80;;;13.10;99.90;;;;;;4945009;29;20040;-73
2023/03/24 17:26:22;;;;;;;2.10;0.95;;;13.10;99.90;;;;;;4944207;29;20381;-74
2023/03/24 17:28:48;;;;;;;3.72;1.45;;;13.00;99.90;;;;;;4959767;29;20012;-74
2023/03/24 17:31:14;;;;;;;2.83;0.95;;;13.00;99.90;;;;;;4944935;29;20116;-75
2023/03/24 17:33:40;;;;;;;6.55;2.88;;;12.90;99.90;;;;;;4959069;29;20260;-74
2023/03/24 17:36:07;;;;;;;10.48;6.55;;;12.90;99.90;;;;;;4944456;29;20039;-78
2023/03/24 17:38:32;;;;;;;7.82;4.75;;;12.70;99.90;;;;;;4944143;29;20020;-73
2023/03/24 17:41:02;;;;;;;3.08;1.60;;;12.70;99.90;;;;;;4944360;29;20044;-73
2023/03/24 17:43:29;;;;;;;2.72;1.25;;;12.60;99.90;;;;;;4944344;29;20035;-72
2023/03/24 17:45:58;;;;;;;2.97;1.70;;;12.50;99.90;;;;;;4944483;29;20046;-75
2023/03/24 17:48:25;;;;;;;6.28;2.90;;;12.40;99.90;;;;;;4944381;29;20114;-74
2023/03/24 17:50:51;;;;;;;15.98;9.40;;;12.30;99.90;;;;;;4944570;29;20031;-74
2023/03/24 17:53:24;;;;;;;5.18;2.42;;;12.20;99.90;;;;;;4944662;29;20055;-74
2023/03/24 17:55:57;;;;;;;39.42;26.25;;;12.10;99.90;;;;;;4944754;29;20050;-75
2023/03/24 17:58:25;;;;;;;4.50;2.78;;;12.00;99.90;;;;;;4944284;29;20058;-74
2023/03/24 18:00:52;;;;;;;3.03;1.75;;;11.90;99.90;;;;;;4943469;29;20043;-72
2023/03/24 18:03:18;;;;;;;3.10;1.70;;;11.70;99.90;;;;;;4944328;29;20044;-74
2023/03/24 18:05:44;;;;;;;4.43;2.72;;;11.60;99.90;;;;;;4944436;29;20073;-74
2023/03/24 18:08:11;;;;;;;5.90;4.05;;;11.50;99.90;;;;;;4935754;29;20031;-73
2023/03/24 18:10:37;;;;;;;3.65;1.67;;;11.40;99.90;;;;;;4935648;29;20020;-74
2023/03/24 18:13:03;;;;;;;2.47;1.33;;;11.50;99.90;;;;;;4935673;29;20023;-74
2023/03/24 18:15:30;;;;;;;2.58;1.33;;;11.50;99.90;;;;;;4943329;29;20032;-74
2023/03/24 18:17:55;;;;;;;3.30;1.80;;;11.40;99.90;;;;;;4944562;29;20027;-73
2023/03/24 18:20:21;;;;;;;3.63;1.90;;;11.40;99.90;;;;;;4941213;28;20202;-75